KMSY/MSY METAR and TAF weather

Enter ICAO airport designator
Station Type Date Time Source
KMSY METAR 2019/08/24 06:53 UTC NOAA

KMSY 240653Z 11005KT 10SM OVC250 27/24 A2997 RMK AO2 SLP151 T02720244 $


Station Type Date Time Source
KMSY Decoded METAR 2019/08/24 06:53 UTC NOAA

Station name not available
Aug 24, 2019 - 02:53 AM EDT / 2019.08.24 0653 UTC
Wind: from the ESE (110 degrees) at 6 MPH (5 KT):0
Visibility: 10 mile(s):0
Sky conditions: overcast
Temperature: 81.0 F (27.2 C)
Dew Point: 75.9 F (24.4 C)
Relative Humidity: 84%
Pressure (altimeter): 29.97 in. Hg (1014 hPa)
ob: KMSY 240653Z 11005KT 10SM OVC250 27/24 A2997 RMK AO2 SLP151 T02720244
cycle: 7

Station Type Date Time Source
KMSY TAF 2019/08/24 06:22 UTC NOAA

TAF KMSY 240520Z 2406/2512 14007KT P6SM FEW015 BKN250
FM240900 00000KT P6SM FEW025 SCT250
FM241200 00000KT P6SM VCTS SCT020CB BKN200
FM241800 VRB04KT P6SM SHRA VCTS SCT030CB OVC100
FM250000 VRB04KT P6SM OVC140

Example: see airport list